Time;durP1;ratioP1;P1;durP2;ratioP2;P2;SDS_P1;SDS_P2;PMS_P1;PMS_P2;Temp;Humidity;BMP_temperature;BMP_pressure;BME280_temperature;BME280_humidity;BME280_pressure;Samples;Min_cycle;Max_cycle;Signal;HPM_P1;HPM_P2
2024/03/29 08:35:43;;;;;;;;;;;;;;;;;;6221744;22;19919;-93
2024/03/29 08:38:08;;;;;;;;;;;;;;;;;;6248895;23;19934;-93
2024/03/29 10:27:58;;;;;;;;;;;;;;;;;;6233364;23;19912;-91
2024/03/29 12:40:35;;;;;;;;;;;;;;;;;;6220823;23;19954;-96
2024/03/29 12:43:04;;;;;;;;;;;;;;;;;;6221180;23;19919;-96
2024/03/29 12:45:39;;;;;;;;;;;;;;;;;;6241549;23;19915;-95
2024/03/29 17:23:58;;;;;;;;;;;;;;;;;;6235592;23;19951;-96
2024/03/29 17:26:24;;;;;;;;;;;;;;;;;;6258765;23;19931;-96
2024/03/29 17:28:49;;;;;;;;;;;;;;;;;;6225251;23;19987;-96
2024/03/29 17:31:14;;;;;;;;;;;;;;;;;;6221772;23;19907;-95
2024/03/29 17:33:42;;;;;;;;;;;;;;;;;;6225980;23;19913;-93
2024/03/29 17:36:12;;;;;;;;;;;;;;;;;;6247591;22;19895;-95
2024/03/29 17:41:20;;;;;;;;;;;;;;;;;;6243701;22;19935;-94
2024/03/29 17:43:46;;;;;;;;;;;;;;;;;;6244732;23;19923;-94
2024/03/29 17:46:19;;;;;;;;;;;;;;;;;;6244764;23;19896;-95
2024/03/29 17:48:45;;;;;;;;;;;;;;;;;;6243517;23;19916;-94
2024/03/29 17:51:12;;;;;;;;;;;;;;;;;;6244722;23;19919;-96
2024/03/29 17:53:37;;;;;;;;;;;;;;;;;;6203909;23;19962;-96
2024/03/29 17:56:03;;;;;;;;;;;;;;;;;;6193482;23;19924;-96
2024/03/29 17:58:29;;;;;;;;;;;;;;;;;;6192375;23;20315;-96
2024/03/29 18:00:55;;;;;;;;;;;;;;;;;;6191950;23;19935;-96
2024/03/29 18:03:21;;;;;;;;;;;;;;;;;;6197591;23;19935;-96
2024/03/29 18:05:47;;;;;;;;;;;;;;;;;;6205710;23;19915;-96
2024/03/29 18:08:13;;;;;;;;;;;;;;;;;;6224555;23;19903;-96
2024/03/29 18:10:38;;;;;;;;;;;;;;;;;;6206131;23;19903;-95
2024/03/29 18:13:05;;;;;;;;;;;;;;;;;;6217953;23;19951;-96
2024/03/29 18:15:31;;;;;;;;;;;;;;;;;;6218951;23;19896;-95
2024/03/29 18:17:57;;;;;;;;;;;;;;;;;;6207654;23;19916;-94
2024/03/29 18:20:23;;;;;;;;;;;;;;;;;;6217238;23;19977;-96
2024/03/29 18:22:48;;;;;;;;;;;;;;;;;;6193857;23;19935;-96
2024/03/29 18:25:14;;;;;;;;;;;;;;;;;;6193447;23;20377;-96
2024/03/29 18:27:39;;;;;;;;;;;;;;;;;;6192368;23;19908;-96
2024/03/29 18:30:05;;;;;;;;;;;;;;;;;;6195092;23;19908;-94
2024/03/29 18:32:30;;;;;;;;;;;;;;;;;;6193794;23;19931;-96
2024/03/29 18:34:56;;;;;;;;;;;;;;;;;;6197130;23;19930;-96
2024/03/29 18:37:21;;;;;;;;;;;;;;;;;;6195020;23;19908;-94
2024/03/29 18:39:47;;;;;;;;;;;;;;;;;;6194809;23;19914;-96
2024/03/29 18:42:12;;;;;;;;;;;;;;;;;;6195135;23;19914;-96
2024/03/29 18:44:37;;;;;;;;;;;;;;;;;;6193166;23;19908;-94
2024/03/29 18:47:03;;;;;;;;;;;;;;;;;;6194030;23;20327;-96
2024/03/29 18:49:28;;;;;;;;;;;;;;;;;;6197875;23;19908;-96
2024/03/29 18:51:53;;;;;;;;;;;;;;;;;;6210226;23;19907;-96
2024/03/29 18:54:21;;;;;;;;;;;;;;;;;;6209870;23;19915;-96
2024/03/29 18:56:48;;;;;;;;;;;;;;;;;;6209466;23;19938;-96
2024/03/29 18:59:16;;;;;;;;;;;;;;;;;;6195216;23;19908;-95
2024/03/29 19:01:42;;;;;;;;;;;;;;;;;;6194864;23;20011;-96
2024/03/29 19:04:07;;;;;;;;;;;;;;;;;;6193035;23;19914;-96
2024/03/29 19:06:32;;;;;;;;;;;;;;;;;;6233834;23;20307;-96
2024/03/29 19:08:59;;;;;;;;;;;;;;;;;;6203113;23;19908;-96
2024/03/29 19:11:24;;;;;;;;;;;;;;;;;;6195367;23;19994;-95
2024/03/29 19:13:50;;;;;;;;;;;;;;;;;;6195697;23;19962;-96
2024/03/29 21:34:16;;;;;;;;;;;;;;;;;;6243462;23;20334;-95
2024/03/29 21:36:41;;;;;;;;;;;;;;;;;;6221836;23;19965;-92
2024/03/29 21:39:07;;;;;;;;;;;;;;;;;;6248556;23;19957;-90
2024/03/29 21:41:32;;;;;;;;;;;;;;;;;;6221437;23;19947;-90
2024/03/29 21:43:57;;;;;;;;;;;;;;;;;;6248101;23;19931;-90
2024/03/29 21:46:23;;;;;;;;;;;;;;;;;;6248120;23;20322;-91
2024/03/29 21:48:48;;;;;;;;;;;;;;;;;;6221515;23;19911;-91
2024/03/29 21:51:13;;;;;;;;;;;;;;;;;;6221346;23;19914;-90
2024/03/29 21:53:39;;;;;;;;;;;;;;;;;;6248005;23;19911;-91
2024/03/29 21:56:04;;;;;;;;;;;;;;;;;;6196331;23;19922;-90
2024/03/29 21:58:30;;;;;;;;;;;;;;;;;;6221534;23;19908;-90
2024/03/29 22:00:55;;;;;;;;;;;;;;;;;;6221701;23;19908;-92
2024/03/29 22:03:21;;;;;;;;;;;;;;;;;;6222994;23;19908;-93
2024/03/29 22:05:48;;;;;;;;;;;;;;;;;;6222214;23;19907;-90
2024/03/29 22:08:14;;;;;;;;;;;;;;;;;;6221989;23;19903;-91
2024/03/29 22:10:43;;;;;;;;;;;;;;;;;;6222166;23;19911;-92
2024/03/29 22:13:10;;;;;;;;;;;;;;;;;;6229767;22;19943;-93
2024/03/29 22:15:37;;;;;;;;;;;;;;;;;;6248580;22;19896;-92
2024/03/29 22:18:02;;;;;;;;;;;;;;;;;;6274186;22;19912;-94
2024/03/29 22:20:29;;;;;;;;;;;;;;;;;;6247657;23;19925;-92
2024/03/29 22:22:57;;;;;;;;;;;;;;;;;;6247370;23;19931;-93
2024/03/29 22:25:23;;;;;;;;;;;;;;;;;;6248305;23;19895;-93
2024/03/29 22:27:49;;;;;;;;;;;;;;;;;;6273245;23;19912;-92
2024/03/29 22:30:15;;;;;;;;;;;;;;;;;;6268454;23;19934;-94
2024/03/29 22:32:41;;;;;;;;;;;;;;;;;;6240529;23;19947;-92
2024/03/29 22:35:07;;;;;;;;;;;;;;;;;;6243801;23;20323;-95
2024/03/29 22:37:32;;;;;;;;;;;;;;;;;;6246125;23;19938;-94
2024/03/29 22:39:58;;;;;;;;;;;;;;;;;;6269895;23;19911;-96
2024/03/29 22:42:27;;;;;;;;;;;;;;;;;;6243071;23;19907;-96
2024/03/29 22:44:52;;;;;;;;;;;;;;;;;;6268865;23;19937;-96
2024/03/29 22:47:19;;;;;;;;;;;;;;;;;;6248101;23;19900;-96
2024/03/29 22:49:44;;;;;;;;;;;;;;;;;;6236926;23;19915;-96
2024/03/29 22:52:09;;;;;;;;;;;;;;;;;;6240428;23;19908;-96
2024/03/29 22:54:35;;;;;;;;;;;;;;;;;;6236935;23;20307;-94
2024/03/29 22:57:00;;;;;;;;;;;;;;;;;;6259198;23;20330;-95
2024/03/29 22:59:25;;;;;;;;;;;;;;;;;;6232700;23;20319;-94
2024/03/29 23:01:51;;;;;;;;;;;;;;;;;;6235292;23;19930;-93
2024/03/29 23:04:16;;;;;;;;;;;;;;;;;;6234226;23;19914;-96
2024/03/29 23:06:43;;;;;;;;;;;;;;;;;;6260148;23;19965;-96
2024/03/29 23:09:10;;;;;;;;;;;;;;;;;;6233321;23;19913;-96
2024/03/29 23:11:35;;;;;;;;;;;;;;;;;;6231555;23;19907;-96
2024/03/29 23:14:01;;;;;;;;;;;;;;;;;;6238863;23;19908;-90
2024/03/29 23:16:27;;;;;;;;;;;;;;;;;;6241990;23;19907;-90
2024/03/29 23:18:54;;;;;;;;;;;;;;;;;;6265555;23;19915;-93
2024/03/29 23:21:20;;;;;;;;;;;;;;;;;;6243590;23;19920;-92
2024/03/29 23:23:46;;;;;;;;;;;;;;;;;;6215995;23;19911;-94
2024/03/29 23:26:16;;;;;;;;;;;;;;;;;;6266549;23;19914;-91
2024/03/29 23:28:43;;;;;;;;;;;;;;;;;;6266674;22;19891;-90
2024/03/29 23:31:08;;;;;;;;;;;;;;;;;;6239333;23;19916;-95
2024/03/29 23:33:34;;;;;;;;;;;;;;;;;;6243358;23;19895;-96
2024/03/29 23:35:59;;;;;;;;;;;;;;;;;;6228610;23;20273;-96
2024/03/29 23:38:24;;;;;;;;;;;;;;;;;;6226884;23;20273;-95
2024/03/29 23:40:53;;;;;;;;;;;;;;;;;;6223197;23;20266;-93
2024/03/29 23:43:20;;;;;;;;;;;;;;;;;;6223603;23;19938;-95
2024/03/29 23:45:45;;;;;;;;;;;;;;;;;;6228602;23;19904;-95
2024/03/29 23:48:11;;;;;;;;;;;;;;;;;;6228583;23;20243;-96
2024/03/29 23:50:36;;;;;;;;;;;;;;;;;;6234406;23;19911;-92
